createdAt,value
2018-05-27T00:01:15.039Z,85.24
2018-05-27T00:02:15.603Z,85.63
2018-05-27T00:03:16.168Z,85.53
2018-05-27T00:04:16.734Z,85.63
2018-05-27T00:05:17.303Z,85.24
2018-05-27T00:06:17.862Z,85.30
2018-05-27T00:07:18.402Z,85.82
2018-05-27T00:08:18.950Z,85.97
2018-05-27T00:09:19.506Z,85.97
2018-05-27T00:10:20.061Z,86.21
2018-05-27T00:11:20.610Z,86.35
2018-05-27T00:12:21.170Z,86.83
2018-05-27T00:13:21.720Z,86.26
2018-05-27T00:14:22.272Z,86.93
2018-05-27T00:15:22.821Z,86.74
2018-05-27T00:16:23.370Z,87.03
2018-05-27T00:17:23.924Z,87.32
2018-05-27T00:18:24.477Z,87.90
2018-05-27T00:19:25.031Z,87.80
2018-05-27T00:20:25.580Z,87.60
2018-05-27T00:21:26.132Z,88.38
2018-05-27T00:22:26.688Z,88.28
2018-05-27T00:23:27.238Z,87.99
2018-05-27T00:24:27.789Z,88.67
2018-05-27T00:25:28.343Z,88.85
2018-05-27T00:26:28.894Z,88.33
2018-05-27T00:27:29.454Z,88.43
2018-05-27T00:28:30.003Z,89.10
2018-05-27T00:29:30.556Z,89.49
2018-05-27T00:30:31.112Z,89.49
2018-05-27T00:31:31.661Z,89.49
2018-05-27T00:32:32.216Z,89.78
2018-05-27T00:33:32.769Z,89.58
2018-05-27T00:34:33.320Z,89.58
2018-05-27T00:35:33.874Z,89.78
2018-05-27T00:36:34.428Z,89.78
2018-05-27T00:37:34.979Z,89.78
2018-05-27T00:38:35.536Z,90.16
2018-05-27T00:39:36.083Z,90.73
2018-05-27T00:40:36.639Z,90.73
2018-05-27T00:41:37.188Z,90.55
2018-05-27T00:42:37.743Z,90.55
2018-05-27T00:43:38.292Z,90.83
2018-05-27T00:44:38.843Z,90.73
2018-05-27T00:45:39.396Z,91.03
2018-05-27T00:46:39.954Z,91.22
2018-05-27T00:47:40.505Z,91.03
2018-05-27T00:48:41.060Z,90.73
2018-05-27T00:49:41.614Z,90.73
2018-05-27T00:50:42.165Z,91.31
2018-05-27T00:51:42.716Z,91.08
2018-05-27T00:52:43.275Z,91.36
2018-05-27T00:53:43.817Z,91.08
2018-05-27T00:54:44.376Z,91.46
2018-05-27T00:55:44.927Z,91.75
2018-05-27T00:56:45.482Z,92.23
2018-05-27T00:57:46.037Z,92.61
2018-05-27T00:58:46.595Z,92.52
2018-05-27T00:59:47.140Z,92.33
2018-05-27T01:00:47.693Z,92.71
2018-05-27T01:01:48.252Z,93.10
2018-05-27T01:02:48.792Z,93.38
2018-05-27T01:03:49.344Z,93.48
2018-05-27T01:04:49.901Z,93.96
2018-05-27T01:05:50.452Z,93.58
2018-05-27T01:06:51.010Z,93.96
2018-05-27T01:07:51.563Z,93.48
2018-05-27T01:08:52.114Z,93.96
2018-05-27T01:09:52.670Z,94.15
2018-05-27T01:10:53.223Z,94.25
2018-05-27T01:11:53.775Z,94.64
2018-05-27T01:12:54.323Z,94.73
2018-05-27T01:13:54.875Z,95.07
2018-05-27T01:14:55.430Z,95.17
2018-05-27T01:15:55.984Z,95.17
2018-05-27T01:16:56.536Z,95.36
2018-05-27T01:17:57.092Z,95.75
2018-05-27T01:18:57.639Z,95.45
2018-05-27T01:19:58.188Z,95.84
2018-05-27T01:20:58.743Z,95.55
2018-05-27T01:21:59.296Z,95.45
2018-05-27T01:22:59.849Z,96.13
2018-05-27T01:24:00.398Z,96.70
2018-05-27T01:25:00.954Z,97.67
2018-05-27T01:26:01.507Z,97.57
2018-05-27T01:27:02.059Z,98.53
2018-05-27T01:28:02.607Z,99.40
2018-05-27T01:29:03.166Z,98.91
2018-05-27T01:30:03.715Z,99.40
2018-05-27T01:31:04.262Z,99.88
2018-05-27T01:32:04.808Z,99.99
2018-05-27T01:33:05.360Z,99.99
2018-05-27T01:34:05.912Z,99.99
2018-05-27T01:35:06.479Z,99.99
2018-05-27T01:36:07.024Z,99.78
2018-05-27T01:37:07.576Z,99.92
2018-05-27T01:38:08.127Z,98.96
2018-05-27T01:39:08.678Z,98.48
2018-05-27T01:40:09.236Z,98.86
2018-05-27T01:41:09.783Z,98.72
2018-05-27T01:42:10.337Z,98.96
2018-05-27T01:43:10.881Z,99.25
2018-05-27T01:44:11.434Z,99.44
2018-05-27T01:45:11.988Z,99.92
2018-05-27T01:46:12.542Z,99.92
2018-05-27T01:47:13.094Z,99.63
2018-05-27T01:48:13.640Z,99.99
2018-05-27T01:49:14.193Z,99.99
2018-05-27T01:50:14.740Z,99.99
2018-05-27T01:51:15.293Z,99.99
2018-05-27T01:52:15.841Z,99.99
2018-05-27T01:53:16.398Z,99.92
2018-05-27T01:54:16.951Z,99.83
2018-05-27T01:55:17.512Z,99.83
2018-05-27T01:56:18.129Z,99.92
2018-05-27T01:57:18.672Z,99.44
2018-05-27T01:58:19.242Z,98.86
2018-05-27T01:59:19.768Z,99.49
2018-05-27T02:00:20.325Z,99.98
2018-05-27T02:01:20.874Z,99.49
2018-05-27T02:02:21.431Z,98.58
2018-05-27T02:03:21.981Z,99.06
2018-05-27T02:04:22.535Z,99.01
2018-05-27T02:05:23.087Z,99.25
2018-05-27T02:06:23.634Z,98.96
2018-05-27T02:07:24.185Z,99.11
2018-05-27T02:08:24.735Z,99.88
2018-05-27T02:09:25.319Z,99.99
2018-05-27T02:10:25.837Z,99.99
2018-05-27T02:11:26.382Z,99.99
2018-05-27T02:12:26.945Z,99.99
2018-05-27T02:13:27.488Z,99.99
2018-05-27T02:14:28.042Z,99.99
2018-05-27T02:15:28.597Z,99.99
2018-05-27T02:16:29.150Z,99.99
2018-05-27T02:17:29.715Z,99.99
2018-05-27T02:18:30.268Z,99.99
2018-05-27T02:19:30.829Z,99.99
2018-05-27T02:20:31.380Z,99.99
2018-05-27T02:21:31.929Z,99.99
2018-05-27T02:22:32.482Z,99.99
2018-05-27T02:23:33.037Z,99.99
2018-05-27T02:24:33.588Z,99.99
2018-05-27T02:25:34.140Z,99.99
2018-05-27T02:26:34.690Z,99.99
2018-05-27T02:27:35.241Z,99.99
2018-05-27T02:28:35.795Z,99.99
2018-05-27T02:29:36.347Z,99.99
2018-05-27T02:30:36.899Z,99.99
2018-05-27T02:31:37.453Z,99.99
2018-05-27T02:32:38.000Z,99.99
2018-05-27T02:33:38.564Z,99.99
2018-05-27T02:34:39.095Z,99.99
2018-05-27T02:35:39.641Z,99.99
2018-05-27T02:36:40.194Z,99.99
2018-05-27T02:37:40.750Z,99.99
2018-05-27T02:38:41.299Z,99.99
2018-05-27T02:39:41.854Z,99.99
2018-05-27T02:40:42.413Z,99.99
2018-05-27T02:41:42.959Z,99.99
2018-05-27T02:42:43.506Z,99.99
2018-05-27T02:43:44.058Z,99.99
2018-05-27T02:44:44.609Z,99.99
2018-05-27T02:45:45.159Z,99.99
2018-05-27T02:46:45.709Z,99.99
2018-05-27T02:47:46.265Z,99.99
2018-05-27T02:48:46.816Z,99.99
2018-05-27T02:49:47.372Z,99.99
2018-05-27T02:50:47.937Z,99.99
2018-05-27T02:51:48.475Z,99.99
2018-05-27T02:52:49.019Z,99.99
2018-05-27T02:53:49.570Z,99.99
2018-05-27T02:54:50.124Z,99.99
2018-05-27T02:55:50.675Z,99.99
2018-05-27T02:56:51.225Z,99.99
2018-05-27T02:57:51.775Z,99.99
2018-05-27T02:58:52.327Z,99.92
2018-05-27T02:59:52.885Z,99.92
2018-05-27T03:00:53.440Z,99.99
2018-05-27T03:01:53.992Z,99.99
2018-05-27T03:02:54.547Z,99.99
2018-05-27T03:03:55.092Z,99.99
2018-05-27T03:04:55.648Z,99.99
2018-05-27T03:05:56.199Z,99.99
2018-05-27T03:06:56.745Z,99.99
2018-05-27T03:07:57.306Z,99.99
2018-05-27T03:08:57.854Z,99.99
2018-05-27T03:09:58.415Z,99.99
2018-05-27T03:10:58.985Z,99.99
2018-05-27T03:11:59.512Z,99.99
2018-05-27T03:13:00.059Z,99.99
2018-05-27T03:14:00.607Z,99.99
2018-05-27T03:15:01.161Z,99.99
2018-05-27T03:16:01.721Z,99.99
2018-05-27T03:17:02.272Z,99.99
2018-05-27T03:18:02.827Z,99.99
2018-05-27T03:19:03.380Z,99.99
2018-05-27T03:20:03.933Z,99.99
2018-05-27T03:21:04.482Z,99.99
2018-05-27T03:22:05.033Z,99.99
2018-05-27T03:23:05.581Z,99.99
2018-05-27T03:24:06.137Z,99.99
2018-05-27T03:25:06.693Z,99.99
2018-05-27T03:26:07.245Z,99.99
2018-05-27T03:27:07.805Z,99.99
2018-05-27T03:28:08.349Z,99.99
2018-05-27T03:29:08.902Z,99.99
2018-05-27T03:30:09.458Z,99.99
2018-05-27T03:31:10.010Z,99.99
2018-05-27T03:32:10.562Z,99.99
2018-05-27T03:33:11.112Z,99.99
2018-05-27T03:34:11.679Z,99.99
2018-05-27T03:35:12.222Z,99.99
2018-05-27T03:36:12.774Z,99.99
2018-05-27T03:37:13.330Z,99.99
2018-05-27T03:38:13.883Z,99.99
2018-05-27T03:39:14.438Z,99.99
2018-05-27T03:40:14.986Z,99.99
2018-05-27T03:41:15.536Z,99.99
2018-05-27T03:42:16.094Z,99.99
2018-05-27T03:43:16.641Z,99.99
2018-05-27T03:44:17.191Z,99.99
2018-05-27T03:45:17.745Z,99.99
2018-05-27T03:46:18.305Z,99.99
2018-05-27T03:47:18.865Z,99.99
2018-05-27T03:48:19.418Z,99.99
2018-05-27T03:49:19.975Z,99.99
2018-05-27T03:50:20.534Z,99.99
2018-05-27T03:51:21.090Z,99.99
2018-05-27T03:52:21.644Z,99.99
2018-05-27T03:53:22.195Z,99.99
2018-05-27T03:54:22.757Z,99.99
2018-05-27T03:55:23.306Z,99.99
2018-05-27T03:56:23.862Z,99.99
2018-05-27T03:57:24.416Z,99.99
2018-05-27T03:58:24.976Z,99.99
2018-05-27T03:59:25.528Z,99.99
2018-05-27T04:00:26.085Z,99.99
2018-05-27T04:01:26.640Z,99.99
2018-05-27T04:02:27.198Z,99.99
2018-05-27T04:03:27.753Z,99.99
2018-05-27T04:04:28.304Z,99.99
2018-05-27T04:05:28.855Z,99.99
2018-05-27T04:06:29.410Z,99.99
2018-05-27T04:07:29.975Z,99.99
2018-05-27T04:08:30.526Z,99.99
2018-05-27T04:09:31.079Z,99.99
2018-05-27T04:10:31.632Z,99.99
2018-05-27T04:11:32.186Z,99.99
2018-05-27T04:12:32.740Z,99.99
2018-05-27T04:13:33.294Z,99.99
2018-05-27T04:14:33.856Z,99.99
2018-05-27T04:15:34.415Z,99.99
2018-05-27T04:16:34.971Z,99.99
2018-05-27T04:17:35.530Z,99.99
2018-05-27T04:18:36.091Z,99.99
2018-05-27T04:19:36.647Z,99.64
2018-05-27T04:20:37.210Z,98.82
2018-05-27T04:21:37.767Z,99.11
2018-05-27T04:22:38.326Z,98.72
2018-05-27T04:23:38.883Z,98.77
2018-05-27T04:24:39.441Z,98.58
2018-05-27T04:25:39.996Z,98.24
2018-05-27T04:26:40.553Z,97.52
2018-05-27T04:27:41.113Z,97.71
2018-05-27T04:28:41.702Z,97.42
2018-05-27T04:29:42.227Z,97.24
2018-05-27T04:30:42.788Z,97.14
2018-05-27T04:31:43.338Z,97.14
2018-05-27T04:32:43.894Z,97.42
2018-05-27T04:33:44.457Z,97.42
2018-05-27T04:34:45.019Z,97.42
2018-05-27T04:35:45.591Z,97.33
2018-05-27T04:36:46.129Z,97.52
2018-05-27T04:37:46.689Z,97.42
2018-05-27T04:38:47.251Z,96.66
2018-05-27T04:39:47.806Z,96.27
2018-05-27T04:40:48.358Z,96.17
2018-05-27T04:41:48.921Z,95.50
2018-05-27T04:42:49.482Z,95.74
2018-05-27T04:43:50.041Z,95.26
2018-05-27T04:44:50.600Z,95.74
2018-05-27T04:45:51.158Z,95.36
2018-05-27T04:46:51.716Z,95.45
2018-05-27T04:47:52.276Z,95.40
2018-05-27T04:48:52.836Z,94.64
2018-05-27T04:49:53.392Z,94.64
2018-05-27T04:50:53.953Z,95.31
2018-05-27T04:51:54.506Z,95.45
2018-05-27T04:52:55.075Z,94.10
2018-05-27T04:53:55.629Z,93.43
2018-05-27T04:54:56.180Z,93.57
2018-05-27T04:55:56.743Z,94.01
2018-05-27T04:56:57.301Z,94.10
2018-05-27T04:57:57.864Z,93.33
2018-05-27T04:58:58.457Z,92.66
2018-05-27T04:59:58.981Z,92.66
2018-05-27T05:00:59.553Z,92.85
2018-05-27T05:02:00.111Z,92.71
2018-05-27T05:03:00.681Z,92.99
2018-05-27T05:04:01.240Z,92.22
2018-05-27T05:05:01.802Z,91.88
2018-05-27T05:06:02.361Z,90.82
2018-05-27T05:07:02.922Z,91.20
2018-05-27T05:08:03.485Z,91.40
2018-05-27T05:09:04.050Z,91.02
2018-05-27T05:10:04.620Z,90.53
2018-05-27T05:11:05.184Z,89.95
2018-05-27T05:12:05.765Z,89.95
2018-05-27T05:13:06.344Z,90.00
2018-05-27T05:14:07.077Z,89.42
2018-05-27T05:15:07.612Z,88.84
2018-05-27T05:16:08.173Z,87.97
2018-05-27T05:17:08.749Z,87.49
2018-05-27T05:18:09.302Z,87.30
2018-05-27T05:19:09.880Z,86.62
2018-05-27T05:20:10.442Z,86.86
2018-05-27T05:21:11.003Z,86.76
2018-05-27T05:22:11.565Z,86.86
2018-05-27T05:23:12.125Z,86.72
2018-05-27T05:24:12.682Z,86.76
2018-05-27T05:25:13.248Z,86.86
2018-05-27T05:26:13.808Z,86.28
2018-05-27T05:27:14.370Z,86.66
2018-05-27T05:28:14.947Z,87.34
2018-05-27T05:29:15.517Z,85.46
2018-05-27T05:30:16.067Z,85.56
2018-05-27T05:31:16.636Z,85.94
2018-05-27T05:32:17.194Z,86.52
2018-05-27T05:33:17.760Z,87.26
2018-05-27T05:34:18.326Z,87.93
2018-05-27T05:35:18.888Z,87.93
2018-05-27T05:36:19.492Z,88.02
2018-05-27T05:37:20.013Z,88.27
2018-05-27T05:38:20.575Z,88.75
2018-05-27T05:39:21.140Z,88.95
2018-05-27T05:40:21.696Z,89.04
2018-05-27T05:41:22.259Z,89.91
2018-05-27T05:42:22.816Z,89.91
2018-05-27T05:43:23.376Z,89.76
2018-05-27T05:44:23.929Z,89.57
2018-05-27T05:45:24.491Z,90.53
2018-05-27T05:46:25.050Z,90.48
2018-05-27T05:47:25.614Z,90.58
2018-05-27T05:48:26.174Z,90.82
2018-05-27T05:49:26.727Z,90.78
2018-05-27T05:50:27.284Z,91.06
2018-05-27T05:51:27.846Z,90.10
2018-05-27T05:52:28.409Z,88.56
2018-05-27T05:53:28.973Z,88.95
2018-05-27T05:54:29.641Z,89.81
2018-05-27T05:55:30.204Z,89.53
2018-05-27T05:56:30.763Z,88.99
2018-05-27T05:57:31.357Z,89.14
2018-05-27T05:58:31.886Z,88.12
2018-05-27T05:59:32.446Z,88.89
2018-05-27T06:00:33.014Z,88.31
2018-05-27T06:01:33.572Z,88.70
2018-05-27T06:02:34.132Z,88.02
2018-05-27T06:03:34.700Z,88.02
2018-05-27T06:04:35.256Z,88.07
2018-05-27T06:05:35.818Z,87.01
2018-05-27T06:06:36.387Z,87.20
2018-05-27T06:07:36.953Z,85.56
2018-05-27T06:08:37.516Z,86.62
2018-05-27T06:09:38.081Z,86.43
2018-05-27T06:10:38.638Z,85.61
2018-05-27T06:11:39.203Z,85.23
2018-05-27T06:12:39.766Z,85.94
2018-05-27T06:13:40.324Z,86.04
2018-05-27T06:14:40.883Z,85.27
2018-05-27T06:15:41.446Z,85.50
2018-05-27T06:16:42.016Z,83.77
2018-05-27T06:17:42.570Z,83.77
2018-05-27T06:18:43.124Z,82.75
2018-05-27T06:19:43.728Z,82.65
2018-05-27T06:20:44.255Z,82.21
2018-05-27T06:21:44.820Z,80.86
2018-05-27T06:22:45.388Z,79.93
2018-05-27T06:23:45.956Z,79.97
2018-05-27T06:24:46.532Z,80.40
2018-05-27T06:25:47.173Z,78.02
2018-05-27T06:26:47.665Z,77.34
2018-05-27T06:27:48.232Z,76.70
2018-05-27T06:28:48.801Z,76.41
2018-05-27T06:29:49.380Z,74.51
2018-05-27T06:30:49.945Z,73.73
2018-05-27T06:31:50.516Z,73.96
2018-05-27T06:32:51.081Z,73.77
2018-05-27T06:33:51.651Z,73.22
2018-05-27T06:34:52.217Z,72.55
2018-05-27T06:35:52.792Z,71.80
2018-05-27T06:36:53.356Z,71.51
2018-05-27T06:37:53.930Z,71.80
2018-05-27T06:38:54.494Z,71.55
2018-05-27T06:39:55.068Z,70.29
2018-05-27T06:40:55.630Z,70.32
2018-05-27T06:41:56.204Z,69.67
2018-05-27T06:42:56.787Z,69.64
2018-05-27T06:43:57.353Z,69.25
2018-05-27T06:44:57.927Z,68.18
2018-05-27T06:45:58.497Z,68.80
2018-05-27T06:46:59.074Z,68.32
2018-05-27T06:47:59.644Z,67.02
2018-05-27T06:49:00.213Z,67.31
2018-05-27T06:50:00.777Z,67.83
2018-05-27T06:51:01.355Z,68.35
2018-05-27T06:52:01.928Z,67.02
2018-05-27T06:53:02.498Z,67.08
2018-05-27T06:54:03.077Z,66.50
2018-05-27T06:55:03.643Z,66.53
2018-05-27T06:56:04.216Z,65.75
2018-05-27T06:57:04.789Z,66.60
2018-05-27T06:58:05.360Z,66.63
2018-05-27T06:59:05.932Z,65.66
2018-05-27T07:00:06.502Z,65.33
2018-05-27T07:01:07.077Z,65.43
2018-05-27T07:02:07.649Z,64.81
2018-05-27T07:03:08.223Z,65.82
2018-05-27T07:04:08.796Z,66.31
2018-05-27T07:05:09.375Z,65.56
2018-05-27T07:06:09.949Z,64.88
2018-05-27T07:07:10.522Z,64.17
2018-05-27T07:08:11.091Z,64.78
2018-05-27T07:09:11.661Z,64.62
2018-05-27T07:10:12.251Z,64.32
2018-05-27T07:11:12.812Z,64.45
2018-05-27T07:12:13.386Z,63.48
2018-05-27T07:13:13.958Z,63.94
2018-05-27T07:14:14.531Z,63.81
2018-05-27T07:15:15.104Z,64.39
2018-05-27T07:16:15.675Z,65.53
2018-05-27T07:17:16.246Z,65.89
2018-05-27T07:18:16.822Z,66.08
2018-05-27T07:19:17.392Z,66.66
2018-05-27T07:20:17.962Z,66.27
2018-05-27T07:21:18.531Z,66.82
2018-05-27T07:22:19.101Z,67.66
2018-05-27T07:23:19.671Z,68.05
2018-05-27T07:24:20.243Z,67.47
2018-05-27T07:25:20.810Z,67.11
2018-05-27T07:26:21.380Z,67.15
2018-05-27T07:27:21.952Z,66.99
2018-05-27T07:28:22.524Z,66.44
2018-05-27T07:29:23.091Z,66.34
2018-05-27T07:30:23.662Z,66.44
2018-05-27T07:31:24.279Z,65.85
2018-05-27T07:32:24.807Z,64.72
2018-05-27T07:33:25.388Z,64.72
2018-05-27T07:34:25.995Z,64.26
2018-05-27T07:35:26.519Z,64.04
2018-05-27T07:36:27.092Z,64.65
2018-05-27T07:37:27.666Z,64.10
2018-05-27T07:38:28.240Z,63.42
2018-05-27T07:39:28.812Z,63.84
2018-05-27T07:40:29.388Z,62.31
2018-05-27T07:41:29.963Z,62.15
2018-05-27T07:42:30.539Z,61.85
2018-05-27T07:43:31.117Z,61.85
2018-05-27T07:44:31.687Z,61.17
2018-05-27T07:45:32.256Z,61.30
2018-05-27T07:46:32.829Z,60.88
2018-05-27T07:47:33.405Z,62.05
2018-05-27T07:48:33.981Z,61.95
2018-05-27T07:49:34.555Z,62.31
2018-05-27T07:50:35.131Z,61.43
2018-05-27T07:51:35.699Z,61.92
2018-05-27T07:52:36.292Z,62.02
2018-05-27T07:53:36.838Z,61.85
2018-05-27T07:54:37.419Z,62.15
2018-05-27T07:55:37.991Z,62.31
2018-05-27T07:56:38.567Z,61.95
2018-05-27T07:57:39.140Z,61.10
2018-05-27T07:58:39.714Z,59.41
2018-05-27T07:59:40.285Z,59.64
2018-05-27T08:00:40.858Z,59.08
2018-05-27T08:01:41.425Z,58.62
2018-05-27T08:02:41.997Z,59.01
2018-05-27T08:03:42.576Z,58.62
2018-05-27T08:04:43.137Z,58.13
2018-05-27T08:05:43.717Z,58.33
2018-05-27T08:06:44.289Z,58.23
2018-05-27T08:07:44.860Z,57.15
2018-05-27T08:08:45.438Z,57.84
2018-05-27T08:09:46.120Z,58.11
2018-05-27T08:10:46.693Z,57.71
2018-05-27T08:11:47.261Z,59.05
2018-05-27T08:12:47.831Z,60.55
2018-05-27T08:13:48.394Z,61.33
2018-05-27T08:14:48.978Z,61.21
2018-05-27T08:15:49.548Z,61.86
2018-05-27T08:16:50.118Z,63.29
2018-05-27T08:17:50.695Z,63.65
2018-05-27T08:18:51.263Z,64.23
2018-05-27T08:19:51.885Z,64.17
2018-05-27T08:20:52.407Z,64.26
2018-05-27T08:21:52.976Z,64.03
2018-05-27T08:22:53.544Z,62.66
2018-05-27T08:23:54.115Z,63.25
2018-05-27T08:24:54.685Z,61.99
2018-05-27T08:25:55.258Z,62.47
2018-05-27T08:26:55.846Z,62.96
2018-05-27T08:27:56.403Z,62.60
2018-05-27T08:28:56.977Z,63.38
2018-05-27T08:29:57.545Z,63.25
2018-05-27T08:30:58.121Z,62.31
2018-05-27T08:31:58.694Z,61.07
2018-05-27T08:32:59.264Z,61.27
2018-05-27T08:33:59.831Z,61.36
2018-05-27T08:35:00.418Z,62.05
2018-05-27T08:36:01.021Z,61.85
2018-05-27T08:37:01.553Z,62.15
2018-05-27T08:38:02.128Z,62.08
2018-05-27T08:39:02.699Z,60.45
2018-05-27T08:40:03.277Z,59.79
2018-05-27T08:41:03.838Z,59.63
2018-05-27T08:42:04.413Z,60.11
2018-05-27T08:43:04.996Z,57.89
2018-05-27T08:44:05.566Z,57.99
2018-05-27T08:45:06.133Z,57.87
2018-05-27T08:46:06.710Z,59.72
2018-05-27T08:47:07.292Z,60.80
2018-05-27T08:48:07.860Z,59.63
2018-05-27T08:49:08.433Z,59.89
2018-05-27T08:50:09.004Z,59.79
2018-05-27T08:51:09.577Z,60.11
2018-05-27T08:52:10.151Z,59.59
2018-05-27T08:53:10.727Z,60.45
2018-05-27T08:54:11.305Z,60.55
2018-05-27T08:55:11.894Z,60.74
2018-05-27T08:56:12.449Z,60.06
2018-05-27T08:57:13.033Z,59.86
2018-05-27T08:58:13.591Z,59.86
2018-05-27T08:59:14.167Z,60.84
2018-05-27T09:00:14.741Z,62.50
2018-05-27T09:01:15.393Z,62.11
2018-05-27T09:02:15.882Z,61.94
2018-05-27T09:03:16.458Z,62.01
2018-05-27T09:04:17.029Z,61.33
2018-05-27T09:05:17.603Z,61.91
2018-05-27T09:06:18.182Z,61.59
2018-05-27T09:07:18.748Z,60.84
2018-05-27T09:08:19.321Z,61.30
2018-05-27T09:09:19.888Z,61.91
2018-05-27T09:10:20.455Z,62.33
2018-05-27T09:11:21.020Z,60.11
2018-05-27T09:12:21.593Z,60.02
2018-05-27T09:13:22.162Z,61.58
2018-05-27T09:14:22.737Z,60.93
2018-05-27T09:15:23.349Z,59.17
2018-05-27T09:16:23.872Z,58.36
2018-05-27T09:17:24.451Z,59.27
2018-05-27T09:18:25.018Z,59.95
2018-05-27T09:19:25.804Z,59.69
2018-05-27T09:20:26.374Z,59.09
2018-05-27T09:21:26.948Z,58.91
2018-05-27T09:22:27.520Z,59.89
2018-05-27T09:23:28.093Z,60.96
2018-05-27T09:24:28.659Z,60.18
2018-05-27T09:25:29.235Z,61.91
2018-05-27T09:26:29.812Z,61.33
2018-05-27T09:27:30.377Z,61.23
2018-05-27T09:28:30.949Z,62.56
2018-05-27T09:29:31.519Z,62.11
2018-05-27T09:30:32.093Z,62.04
2018-05-27T09:31:32.667Z,62.04
2018-05-27T09:32:33.236Z,62.11
2018-05-27T09:33:33.806Z,61.72
2018-05-27T09:34:34.368Z,62.18
2018-05-27T09:35:34.940Z,62.47
2018-05-27T09:36:35.513Z,62.63
2018-05-27T09:37:36.087Z,64.06
2018-05-27T09:38:36.660Z,63.90
2018-05-27T09:39:37.227Z,62.95
2018-05-27T09:40:37.800Z,62.63
2018-05-27T09:41:38.368Z,63.73
2018-05-27T09:42:38.940Z,62.37
2018-05-27T09:43:39.505Z,62.15
2018-05-27T09:44:40.079Z,62.44
2018-05-27T09:45:40.649Z,62.37
2018-05-27T09:46:41.216Z,62.18
2018-05-27T09:47:41.793Z,61.49
2018-05-27T09:48:42.362Z,61.82
2018-05-27T09:49:42.937Z,61.16
2018-05-27T09:50:43.505Z,60.80
2018-05-27T09:51:44.080Z,59.72
2018-05-27T09:52:44.644Z,60.70
2018-05-27T09:53:45.212Z,59.69
2018-05-27T09:54:45.790Z,60.47
2018-05-27T09:55:46.365Z,61.06
2018-05-27T09:56:46.935Z,60.50
2018-05-27T09:57:47.556Z,60.80
2018-05-27T09:58:48.080Z,59.04
2018-05-27T09:59:48.651Z,58.97
2018-05-27T10:00:49.229Z,58.70
2018-05-27T10:01:49.801Z,58.68
2018-05-27T10:02:50.376Z,58.38
2018-05-27T10:03:50.949Z,57.40
2018-05-27T10:04:51.520Z,56.75
2018-05-27T10:05:52.094Z,57.56
2018-05-27T10:06:52.665Z,57.24
2018-05-27T10:07:53.241Z,57.60
2018-05-27T10:08:53.808Z,58.45
2018-05-27T10:09:54.380Z,59.92
2018-05-27T10:10:54.952Z,59.72
2018-05-27T10:11:55.532Z,59.82
2018-05-27T10:12:56.102Z,58.65
2018-05-27T10:13:56.674Z,58.84
2018-05-27T10:14:57.242Z,57.67
2018-05-27T10:15:57.815Z,57.67
2018-05-27T10:16:58.397Z,57.50
2018-05-27T10:17:58.969Z,57.40
2018-05-27T10:18:59.566Z,56.99
2018-05-27T10:20:00.113Z,56.76
2018-05-27T10:21:00.681Z,57.84
2018-05-27T10:22:01.257Z,58.52
2018-05-27T10:23:01.824Z,58.98
2018-05-27T10:24:02.413Z,59.54
2018-05-27T10:25:02.973Z,60.00
2018-05-27T10:26:03.599Z,61.07
2018-05-27T10:27:04.103Z,61.24
2018-05-27T10:28:04.670Z,62.02
2018-05-27T10:29:05.447Z,62.96
2018-05-27T10:30:06.027Z,62.18
2018-05-27T10:31:06.594Z,61.40
2018-05-27T10:32:07.160Z,62.08
2018-05-27T10:33:07.730Z,62.28
2018-05-27T10:34:08.299Z,62.05
2018-05-27T10:35:08.868Z,62.12
2018-05-27T10:36:09.434Z,62.80
2018-05-27T10:37:10.003Z,63.87
2018-05-27T10:38:10.574Z,64.62
2018-05-27T10:39:11.191Z,63.75
2018-05-27T10:40:11.707Z,63.35
2018-05-27T10:41:12.273Z,64.69
2018-05-27T10:42:12.841Z,64.00
2018-05-27T10:43:13.408Z,65.14
2018-05-27T10:44:13.980Z,65.14
2018-05-27T10:45:14.543Z,66.21
2018-05-27T10:46:15.114Z,66.96
2018-05-27T10:47:15.691Z,68.70
2018-05-27T10:48:16.255Z,68.80
2018-05-27T10:49:16.821Z,69.29
2018-05-27T10:50:17.389Z,69.77
2018-05-27T10:51:17.952Z,69.96
2018-05-27T10:52:18.518Z,69.67
2018-05-27T10:53:19.082Z,69.77
2018-05-27T10:54:19.644Z,70.84
2018-05-27T10:55:20.207Z,71.48
2018-05-27T10:56:20.773Z,71.97
2018-05-27T10:57:21.335Z,71.10
2018-05-27T10:58:21.899Z,71.00
2018-05-27T10:59:22.462Z,70.81
2018-05-27T11:00:23.027Z,70.61
2018-05-27T11:01:23.589Z,71.10
2018-05-27T11:02:24.152Z,71.39
2018-05-27T11:03:24.717Z,71.68
2018-05-27T11:04:25.284Z,71.72
2018-05-27T11:05:25.840Z,71.03
2018-05-27T11:06:26.405Z,72.01
2018-05-27T11:07:26.965Z,71.72
2018-05-27T11:08:27.527Z,71.91
2018-05-27T11:09:28.090Z,71.62
2018-05-27T11:10:28.665Z,71.72
2018-05-27T11:11:29.222Z,70.75
2018-05-27T11:12:29.793Z,70.75
2018-05-27T11:13:30.362Z,71.87
2018-05-27T11:14:30.925Z,71.87
2018-05-27T11:15:31.482Z,71.39
2018-05-27T11:16:32.044Z,71.39
2018-05-27T11:17:32.719Z,73.04
2018-05-27T11:18:33.285Z,73.72
2018-05-27T11:19:33.846Z,71.97
2018-05-27T11:20:34.420Z,71.84
2018-05-27T11:21:35.005Z,72.13
2018-05-27T11:22:35.552Z,72.23
2018-05-27T11:23:36.119Z,73.39
2018-05-27T11:24:36.682Z,73.97
2018-05-27T11:25:37.248Z,74.52
2018-05-27T11:26:37.812Z,75.88
2018-05-27T11:27:38.379Z,75.84
2018-05-27T11:28:38.949Z,75.10
2018-05-27T11:29:39.512Z,76.04
2018-05-27T11:30:40.076Z,75.94
2018-05-27T11:31:40.635Z,76.72
2018-05-27T11:32:41.199Z,76.42
2018-05-27T11:33:41.761Z,77.16
2018-05-27T11:34:42.329Z,77.36
2018-05-27T11:35:42.892Z,77.75
2018-05-27T11:36:43.448Z,77.84
2018-05-27T11:37:44.011Z,77.94
2018-05-27T11:38:44.564Z,78.38
2018-05-27T11:39:45.127Z,78.23
2018-05-27T11:40:45.699Z,78.29
2018-05-27T11:41:46.257Z,77.61
2018-05-27T11:42:46.823Z,77.86
2018-05-27T11:43:47.384Z,78.83
2018-05-27T11:44:47.950Z,78.54
2018-05-27T11:45:48.513Z,79.02
2018-05-27T11:46:49.075Z,78.15
2018-05-27T11:47:49.636Z,78.54
2018-05-27T11:48:50.197Z,79.08
2018-05-27T11:49:50.760Z,79.17
2018-05-27T11:50:51.320Z,79.91
2018-05-27T11:51:51.888Z,80.69
2018-05-27T11:52:52.444Z,81.37
2018-05-27T11:53:53.009Z,81.46
2018-05-27T11:54:53.568Z,81.95
2018-05-27T11:55:54.135Z,81.95
2018-05-27T11:56:54.696Z,82.81
2018-05-27T11:57:55.253Z,82.23
2018-05-27T11:58:55.811Z,83.49
2018-05-27T11:59:56.371Z,83.64
2018-05-27T12:00:56.928Z,84.08
2018-05-27T12:01:57.496Z,84.17
2018-05-27T12:02:58.059Z,84.56
2018-05-27T12:03:58.619Z,83.55
2018-05-27T12:04:59.179Z,84.71
2018-05-27T12:05:59.735Z,84.61
2018-05-27T12:07:00.296Z,85.29
2018-05-27T12:08:00.857Z,84.71
2018-05-27T12:09:01.458Z,84.80
2018-05-27T12:10:01.981Z,86.83
2018-05-27T12:11:02.540Z,88.39
2018-05-27T12:12:03.106Z,88.19
2018-05-27T12:13:03.661Z,88.29
2018-05-27T12:14:04.227Z,87.95
2018-05-27T12:15:04.785Z,89.89
2018-05-27T12:16:05.357Z,90.95
2018-05-27T12:17:05.910Z,89.11
2018-05-27T12:18:06.463Z,89.94
2018-05-27T12:19:07.043Z,91.43
2018-05-27T12:20:07.600Z,91.91
2018-05-27T12:21:08.161Z,91.58
2018-05-27T12:22:08.725Z,91.87
2018-05-27T12:23:09.286Z,93.23
2018-05-27T12:24:09.871Z,93.90
2018-05-27T12:25:10.413Z,94.24
2018-05-27T12:26:10.978Z,95.30
2018-05-27T12:27:11.536Z,95.68
2018-05-27T12:28:12.096Z,95.68
2018-05-27T12:29:12.660Z,95.88
2018-05-27T12:30:13.220Z,97.14
2018-05-27T12:31:13.773Z,96.94
2018-05-27T12:32:14.333Z,96.56
2018-05-27T12:33:14.893Z,96.03
2018-05-27T12:34:15.457Z,96.61
2018-05-27T12:35:16.016Z,97.77
2018-05-27T12:36:16.576Z,99.21
2018-05-27T12:37:17.134Z,98.92
2018-05-27T12:38:17.694Z,98.05
2018-05-27T12:39:18.255Z,98.63
2018-05-27T12:40:18.815Z,99.99
2018-05-27T12:41:19.370Z,99.99
2018-05-27T12:42:19.925Z,99.99
2018-05-27T12:43:20.484Z,99.99
2018-05-27T12:44:21.047Z,99.99
2018-05-27T12:45:21.603Z,99.99
2018-05-27T12:46:22.165Z,99.99
2018-05-27T12:47:22.719Z,99.99
2018-05-27T12:48:23.277Z,99.99
2018-05-27T12:49:23.837Z,99.99
2018-05-27T12:50:24.396Z,99.99
2018-05-27T12:51:24.952Z,99.99
2018-05-27T12:52:25.511Z,99.99
2018-05-27T12:53:26.070Z,98.05
2018-05-27T12:54:26.632Z,98.68
2018-05-27T12:55:27.189Z,98.20
2018-05-27T12:56:27.751Z,98.10
2018-05-27T12:57:28.313Z,97.62
2018-05-27T12:58:28.876Z,96.75
2018-05-27T12:59:29.440Z,96.08
2018-05-27T13:00:29.995Z,94.77